sensor_id;sensor_type;location;lat;lon;timestamp;pressure;altitude;pressure_sealevel;temperature;humidity
2397;BME280;1209;48.410;9.054;2023-02-17T00:01:17;97102.19;;;10.55;80.86
2397;BME280;1209;48.410;9.054;2023-02-17T00:03:44;97107.28;;;10.57;81.68
2397;BME280;1209;48.410;9.054;2023-02-17T00:06:14;97095.75;;;10.42;83.05
2397;BME280;1209;48.410;9.054;2023-02-17T00:08:40;97096.94;;;10.47;84.02
2397;BME280;1209;48.410;9.054;2023-02-17T00:11:05;97098.47;;;10.58;85.40
2397;BME280;1209;48.410;9.054;2023-02-17T00:13:32;97092.63;;;10.64;85.99
2397;BME280;1209;48.410;9.054;2023-02-17T00:15:59;97101.13;;;10.66;87.15
2397;BME280;1209;48.410;9.054;2023-02-17T00:18:24;97098.03;;;10.70;87.40
2397;BME280;1209;48.410;9.054;2023-02-17T00:20:49;97107.81;;;10.68;87.44
2397;BME280;1209;48.410;9.054;2023-02-17T00:23:16;97097.88;;;10.72;88.86
2397;BME280;1209;48.410;9.054;2023-02-17T00:25:41;97095.13;;;10.73;88.31
2397;BME280;1209;48.410;9.054;2023-02-17T00:28:07;97098.19;;;10.69;89.07
2397;BME280;1209;48.410;9.054;2023-02-17T00:30:32;97099.16;;;10.68;89.41
2397;BME280;1209;48.410;9.054;2023-02-17T00:32:58;97096.56;;;10.68;89.54
2397;BME280;1209;48.410;9.054;2023-02-17T00:35:24;97108.44;;;10.62;89.61
2397;BME280;1209;48.410;9.054;2023-02-17T00:37:51;97094.09;;;10.66;90.13
2397;BME280;1209;48.410;9.054;2023-02-17T00:40:16;97095.59;;;10.69;90.31
2397;BME280;1209;48.410;9.054;2023-02-17T00:42:42;97092.16;;;10.68;90.35
2397;BME280;1209;48.410;9.054;2023-02-17T00:45:08;97094.31;;;10.73;89.54
2397;BME280;1209;48.410;9.054;2023-02-17T00:47:34;97089.69;;;10.67;90.64
2397;BME280;1209;48.410;9.054;2023-02-17T00:49:59;97089.69;;;10.67;90.43
2397;BME280;1209;48.410;9.054;2023-02-17T00:52:26;97080.56;;;10.71;89.81
2397;BME280;1209;48.410;9.054;2023-02-17T00:54:51;97068.28;;;10.63;91.02
2397;BME280;1209;48.410;9.054;2023-02-17T00:57:16;97079.56;;;10.64;90.73
2397;BME280;1209;48.410;9.054;2023-02-17T00:59:42;97077.75;;;10.64;90.70
2397;BME280;1209;48.410;9.054;2023-02-17T01:02:07;97089.19;;;10.63;90.91
2397;BME280;1209;48.410;9.054;2023-02-17T01:04:32;97086.41;;;10.65;91.24
2397;BME280;1209;48.410;9.054;2023-02-17T01:06:59;97085.25;;;10.59;91.42
2397;BME280;1209;48.410;9.054;2023-02-17T01:09:27;97081.66;;;10.60;91.00
2397;BME280;1209;48.410;9.054;2023-02-17T01:11:52;97090.63;;;10.58;91.54
2397;BME280;1209;48.410;9.054;2023-02-17T01:14:18;97091.59;;;10.57;91.52
2397;BME280;1209;48.410;9.054;2023-02-17T01:16:45;97083.09;;;10.55;92.24
2397;BME280;1209;48.410;9.054;2023-02-17T01:19:14;97086.22;;;10.58;91.63
2397;BME280;1209;48.410;9.054;2023-02-17T01:21:40;97083.25;;;10.53;92.32
2397;BME280;1209;48.410;9.054;2023-02-17T01:24:07;97079.13;;;10.43;93.10
2397;BME280;1209;48.410;9.054;2023-02-17T01:26:34;97090.94;;;10.55;92.41
2397;BME280;1209;48.410;9.054;2023-02-17T01:29:02;97079.38;;;10.57;92.92
2397;BME280;1209;48.410;9.054;2023-02-17T01:31:28;97078.50;;;10.49;93.52
2397;BME280;1209;48.410;9.054;2023-02-17T01:34:01;97070.97;;;10.46;93.97
2397;BME280;1209;48.410;9.054;2023-02-17T01:36:27;97075.72;;;10.50;94.35
2397;BME280;1209;48.410;9.054;2023-02-17T01:38:53;97069.53;;;10.51;94.83
2397;BME280;1209;48.410;9.054;2023-02-17T01:41:20;97055.31;;;10.46;95.07
2397;BME280;1209;48.410;9.054;2023-02-17T01:44:12;97056.28;;;10.45;95.76
2397;BME280;1209;48.410;9.054;2023-02-17T01:46:41;97049.97;;;10.55;95.74
2397;BME280;1209;48.410;9.054;2023-02-17T01:49:23;97050.63;;;10.57;95.88
2397;BME280;1209;48.410;9.054;2023-02-17T01:51:56;97041.47;;;10.53;96.43
2397;BME280;1209;48.410;9.054;2023-02-17T01:54:29;97043.78;;;10.56;97.29
2397;BME280;1209;48.410;9.054;2023-02-17T01:56:58;97042.28;;;10.54;97.48
2397;BME280;1209;48.410;9.054;2023-02-17T01:59:28;97045.56;;;10.56;97.65
2397;BME280;1209;48.410;9.054;2023-02-17T02:01:58;97043.47;;;10.59;98.17
2397;BME280;1209;48.410;9.054;2023-02-17T02:04:28;97035.44;;;10.53;99.10
2397;BME280;1209;48.410;9.054;2023-02-17T02:06:54;97026.13;;;10.50;99.58
2397;BME280;1209;48.410;9.054;2023-02-17T02:09:24;97027.13;;;10.57;99.84
2397;BME280;1209;48.410;9.054;2023-02-17T02:11:53;97018.16;;;10.60;100.00
2397;BME280;1209;48.410;9.054;2023-02-17T02:14:19;97011.66;;;10.64;100.00
2397;BME280;1209;48.410;9.054;2023-02-17T02:17:02;97024.41;;;10.67;100.00
2397;BME280;1209;48.410;9.054;2023-02-17T02:19:56;97017.53;;;10.66;100.00
2397;BME280;1209;48.410;9.054;2023-02-17T02:33:35;97002.19;;;10.63;100.00
2397;BME280;1209;48.410;9.054;2023-02-17T02:36:26;97021.28;;;10.63;100.00
2397;BME280;1209;48.410;9.054;2023-02-17T02:39:15;97007.41;;;10.63;100.00
2397;BME280;1209;48.410;9.054;2023-02-17T02:44:14;97002.81;;;10.57;100.00
2397;BME280;1209;48.410;9.054;2023-02-17T02:46:39;97005.06;;;10.52;100.00
2397;BME280;1209;48.410;9.054;2023-02-17T02:49:06;97007.00;;;10.50;100.00
2397;BME280;1209;48.410;9.054;2023-02-17T02:51:48;97003.25;;;10.44;100.00
2397;BME280;1209;48.410;9.054;2023-02-17T02:54:49;97008.63;;;10.43;100.00
2397;BME280;1209;48.410;9.054;2023-02-17T02:57:28;97003.66;;;10.39;100.00
2397;BME280;1209;48.410;9.054;2023-02-17T03:00:19;97004.97;;;10.35;100.00
2397;BME280;1209;48.410;9.054;2023-02-17T03:02:52;97009.88;;;10.38;100.00
2397;BME280;1209;48.410;9.054;2023-02-17T03:08:19;97005.41;;;10.31;100.00
2397;BME280;1209;48.410;9.054;2023-02-17T03:10:50;97006.91;;;10.33;100.00
2397;BME280;1209;48.410;9.054;2023-02-17T03:13:17;96988.28;;;10.28;100.00
2397;BME280;1209;48.410;9.054;2023-02-17T03:15:43;97001.78;;;10.24;100.00
2397;BME280;1209;48.410;9.054;2023-02-17T03:18:10;96993.34;;;10.30;100.00
2397;BME280;1209;48.410;9.054;2023-02-17T03:20:39;96994.00;;;10.32;100.00
2397;BME280;1209;48.410;9.054;2023-02-17T03:23:09;97005.06;;;10.26;100.00
2397;BME280;1209;48.410;9.054;2023-02-17T03:25:36;96993.97;;;10.24;100.00
2397;BME280;1209;48.410;9.054;2023-02-17T03:28:03;97002.47;;;10.26;100.00
2397;BME280;1209;48.410;9.054;2023-02-17T03:30:28;96999.69;;;10.27;100.00
2397;BME280;1209;48.410;9.054;2023-02-17T03:32:54;97001.78;;;10.24;100.00
2397;BME280;1209;48.410;9.054;2023-02-17T03:35:19;96999.84;;;10.26;100.00
2397;BME280;1209;48.410;9.054;2023-02-17T03:37:50;96993.66;;;10.27;100.00
2397;BME280;1209;48.410;9.054;2023-02-17T03:40:16;96994.00;;;10.32;100.00
2397;BME280;1209;48.410;9.054;2023-02-17T03:42:41;96999.53;;;10.29;100.00
2397;BME280;1209;48.410;9.054;2023-02-17T03:45:07;96995.44;;;10.26;100.00
2397;BME280;1209;48.410;9.054;2023-02-17T03:47:38;96987.97;;;10.31;100.00
2397;BME280;1209;48.410;9.054;2023-02-17T03:50:05;96990.06;;;10.28;100.00
2397;BME280;1209;48.410;9.054;2023-02-17T03:52:31;96977.16;;;10.26;100.00
2397;BME280;1209;48.410;9.054;2023-02-17T03:54:56;96994.66;;;10.34;100.00
2397;BME280;1209;48.410;9.054;2023-02-17T03:57:21;96983.06;;;10.28;100.00
2397;BME280;1209;48.410;9.054;2023-02-17T03:59:47;96987.47;;;10.28;100.00
2397;BME280;1209;48.410;9.054;2023-02-17T04:02:13;96994.16;;;10.30;100.00
2397;BME280;1209;48.410;9.054;2023-02-17T04:04:38;96985.34;;;10.31;100.00
2397;BME280;1209;48.410;9.054;2023-02-17T04:07:04;96985.81;;;10.27;100.00
2397;BME280;1209;48.410;9.054;2023-02-17T04:09:31;96984.78;;;10.20;100.00
2397;BME280;1209;48.410;9.054;2023-02-17T04:11:58;96986.50;;;10.29;100.00
2397;BME280;1209;48.410;9.054;2023-02-17T04:14:25;96998.22;;;10.25;100.00
2397;BME280;1209;48.410;9.054;2023-02-17T04:16:50;96997.81;;;10.20;100.00
2397;BME280;1209;48.410;9.054;2023-02-17T04:19:15;97003.91;;;10.20;100.00
2397;BME280;1209;48.410;9.054;2023-02-17T04:21:41;97006.44;;;10.12;100.00
2397;BME280;1209;48.410;9.054;2023-02-17T04:24:08;97012.09;;;10.07;100.00
2397;BME280;1209;48.410;9.054;2023-02-17T04:26:34;97009.19;;;10.10;100.00
2397;BME280;1209;48.410;9.054;2023-02-17T04:29:02;97008.69;;;10.07;100.00
2397;BME280;1209;48.410;9.054;2023-02-17T04:31:28;97002.63;;;10.06;100.00
2397;BME280;1209;48.410;9.054;2023-02-17T04:33:53;96991.19;;;9.99;100.00
2397;BME280;1209;48.410;9.054;2023-02-17T04:36:19;96999.31;;;9.96;100.00
2397;BME280;1209;48.410;9.054;2023-02-17T04:38:44;97002.91;;;9.95;100.00
2397;BME280;1209;48.410;9.054;2023-02-17T04:41:11;97009.59;;;9.98;100.00
2397;BME280;1209;48.410;9.054;2023-02-17T04:43:36;97007.97;;;9.97;100.00
2397;BME280;1209;48.410;9.054;2023-02-17T04:46:06;97004.59;;;10.04;100.00
2397;BME280;1209;48.410;9.054;2023-02-17T04:48:31;97007.03;;;10.06;100.00
2397;BME280;1209;48.410;9.054;2023-02-17T04:51:10;96997.94;;;10.10;100.00
2397;BME280;1209;48.410;9.054;2023-02-17T04:53:35;96989.94;;;10.12;100.00
2397;BME280;1209;48.410;9.054;2023-02-17T04:56:01;97001.22;;;10.12;100.00
2397;BME280;1209;48.410;9.054;2023-02-17T04:58:27;96987.19;;;10.13;100.00
2397;BME280;1209;48.410;9.054;2023-02-17T05:00:52;97000.75;;;10.17;100.00
2397;BME280;1209;48.410;9.054;2023-02-17T05:03:18;96997.16;;;10.18;100.00
2397;BME280;1209;48.410;9.054;2023-02-17T05:05:43;96993.88;;;10.16;100.00
2397;BME280;1209;48.410;9.054;2023-02-17T05:08:08;96997.00;;;10.19;100.00
2397;BME280;1209;48.410;9.054;2023-02-17T05:10:34;96999.84;;;10.26;100.00
2397;BME280;1209;48.410;9.054;2023-02-17T05:12:59;96998.25;;;10.33;100.00
2397;BME280;1209;48.410;9.054;2023-02-17T05:15:24;96987.66;;;10.34;100.00
2397;BME280;1209;48.410;9.054;2023-02-17T05:17:50;96996.94;;;10.29;100.00
2397;BME280;1209;48.410;9.054;2023-02-17T05:20:15;96988.78;;;10.32;100.00
2397;BME280;1209;48.410;9.054;2023-02-17T05:22:40;96987.00;;;10.32;100.00
2397;BME280;1209;48.410;9.054;2023-02-17T05:25:06;96976.72;;;10.31;100.00
2397;BME280;1209;48.410;9.054;2023-02-17T05:27:32;96970.66;;;10.30;100.00
2397;BME280;1209;48.410;9.054;2023-02-17T05:29:57;96970.00;;;10.28;100.00
2397;BME280;1209;48.410;9.054;2023-02-17T05:32:22;96970.16;;;10.27;100.00
2397;BME280;1209;48.410;9.054;2023-02-17T05:34:48;96967.09;;;10.31;100.00
2397;BME280;1209;48.410;9.054;2023-02-17T05:37:13;96969.06;;;10.37;100.00
2397;BME280;1209;48.410;9.054;2023-02-17T05:39:39;96968.91;;;10.39;100.00
2397;BME280;1209;48.410;9.054;2023-02-17T05:42:04;96964.81;;;10.36;100.00
2397;BME280;1209;48.410;9.054;2023-02-17T05:44:29;96965.63;;;10.37;100.00
2397;BME280;1209;48.410;9.054;2023-02-17T05:46:55;96971.25;;;10.42;100.00
2397;BME280;1209;48.410;9.054;2023-02-17T05:49:20;96970.56;;;10.40;100.00
2397;BME280;1209;48.410;9.054;2023-02-17T05:51:45;96971.84;;;10.36;100.00
2397;BME280;1209;48.410;9.054;2023-02-17T05:54:11;96974.13;;;10.39;100.00
2397;BME280;1209;48.410;9.054;2023-02-17T05:56:36;96978.38;;;10.40;100.00
2397;BME280;1209;48.410;9.054;2023-02-17T05:59:02;96987.31;;;10.29;100.00
2397;BME280;1209;48.410;9.054;2023-02-17T06:01:27;96989.59;;;10.32;100.00
2397;BME280;1209;48.410;9.054;2023-02-17T06:03:52;96996.16;;;10.36;100.00
2397;BME280;1209;48.410;9.054;2023-02-17T06:06:18;96983.59;;;10.40;100.00
2397;BME280;1209;48.410;9.054;2023-02-17T06:08:43;96990.19;;;10.44;100.00
2397;BME280;1209;48.410;9.054;2023-02-17T06:11:09;96989.06;;;10.47;100.00
2397;BME280;1209;48.410;9.054;2023-02-17T06:13:34;96988.97;;;10.38;100.00
2397;BME280;1209;48.410;9.054;2023-02-17T06:16:00;96993.22;;;10.39;100.00
2397;BME280;1209;48.410;9.054;2023-02-17T06:18:25;96997.03;;;10.45;100.00
2397;BME280;1209;48.410;9.054;2023-02-17T06:20:53;96997.69;;;10.47;100.00
2397;BME280;1209;48.410;9.054;2023-02-17T06:23:19;97000.81;;;10.51;100.00
2397;BME280;1209;48.410;9.054;2023-02-17T06:25:44;97001.13;;;10.48;100.00
2397;BME280;1209;48.410;9.054;2023-02-17T06:28:09;97005.22;;;10.50;100.00
2397;BME280;1209;48.410;9.054;2023-02-17T06:30:35;97005.22;;;10.50;100.00
2397;BME280;1209;48.410;9.054;2023-02-17T06:33:00;97003.94;;;10.54;100.00
2397;BME280;1209;48.410;9.054;2023-02-17T06:35:25;97008.50;;;10.52;100.00
2397;BME280;1209;48.410;9.054;2023-02-17T06:37:51;97017.16;;;10.53;100.00
2397;BME280;1209;48.410;9.054;2023-02-17T06:40:16;97011.78;;;10.54;100.00
2397;BME280;1209;48.410;9.054;2023-02-17T06:42:42;97011.56;;;10.48;100.00
2397;BME280;1209;48.410;9.054;2023-02-17T06:45:07;97020.88;;;10.50;100.00
2397;BME280;1209;48.410;9.054;2023-02-17T06:47:33;97017.47;;;10.50;100.00
2397;BME280;1209;48.410;9.054;2023-02-17T06:49:59;97018.75;;;10.46;100.00
2397;BME280;1209;48.410;9.054;2023-02-17T06:52:24;97021.19;;;10.47;100.00
2397;BME280;1209;48.410;9.054;2023-02-17T06:54:50;97026.75;;;10.44;100.00
2397;BME280;1209;48.410;9.054;2023-02-17T06:57:15;97022.50;;;10.43;100.00
2397;BME280;1209;48.410;9.054;2023-02-17T06:59:41;97034.88;;;10.41;100.00
2397;BME280;1209;48.410;9.054;2023-02-17T07:02:09;97027.88;;;10.42;100.00
2397;BME280;1209;48.410;9.054;2023-02-17T07:04:37;97027.88;;;10.42;100.00
2397;BME280;1209;48.410;9.054;2023-02-17T07:07:02;97030.91;;;10.37;100.00
2397;BME280;1209;48.410;9.054;2023-02-17T07:09:27;97035.16;;;10.38;100.00
2397;BME280;1209;48.410;9.054;2023-02-17T07:11:53;97025.53;;;10.38;100.00
2397;BME280;1209;48.410;9.054;2023-02-17T07:14:18;97023.06;;;10.37;100.00
2397;BME280;1209;48.410;9.054;2023-02-17T07:16:43;97024.56;;;10.39;100.00
2397;BME280;1209;48.410;9.054;2023-02-17T07:19:09;97022.75;;;10.40;100.00
2397;BME280;1209;48.410;9.054;2023-02-17T07:21:34;97040.22;;;10.39;100.00
2397;BME280;1209;48.410;9.054;2023-02-17T07:24:00;97031.13;;;10.44;100.00
2397;BME280;1209;48.410;9.054;2023-02-17T07:26:25;97037.53;;;10.49;100.00
2397;BME280;1209;48.410;9.054;2023-02-17T07:28:50;97047.97;;;10.49;100.00
2397;BME280;1209;48.410;9.054;2023-02-17T07:31:16;97052.88;;;10.52;100.00
2397;BME280;1209;48.410;9.054;2023-02-17T07:33:42;97056.16;;;10.54;100.00
2397;BME280;1209;48.410;9.054;2023-02-17T07:36:13;97070.56;;;10.58;100.00
2397;BME280;1209;48.410;9.054;2023-02-17T07:38:39;97068.59;;;10.60;100.00
2397;BME280;1209;48.410;9.054;2023-02-17T07:41:12;97071.88;;;10.62;100.00
2397;BME280;1209;48.410;9.054;2023-02-17T07:43:38;97064.03;;;10.62;100.00
2397;BME280;1209;48.410;9.054;2023-02-17T07:46:04;97069.47;;;10.69;100.00
2397;BME280;1209;48.410;9.054;2023-02-17T07:48:30;97078.63;;;10.73;100.00
2397;BME280;1209;48.410;9.054;2023-02-17T07:50:55;97083.69;;;10.75;100.00
2397;BME280;1209;48.410;9.054;2023-02-17T07:53:21;97090.25;;;10.79;100.00
2397;BME280;1209;48.410;9.054;2023-02-17T07:55:47;97077.66;;;10.74;100.00
2397;BME280;1209;48.410;9.054;2023-02-17T07:58:12;97088.44;;;10.79;100.00
2397;BME280;1209;48.410;9.054;2023-02-17T08:00:38;97087.94;;;10.76;100.00
2397;BME280;1209;48.410;9.054;2023-02-17T08:03:03;97094.34;;;10.81;100.00
2397;BME280;1209;48.410;9.054;2023-02-17T08:05:28;97086.34;;;10.83;100.00
2397;BME280;1209;48.410;9.054;2023-02-17T08:07:54;97079.63;;;10.80;100.00
2397;BME280;1209;48.410;9.054;2023-02-17T08:10:38;97083.53;;;10.76;100.00
2397;BME280;1209;48.410;9.054;2023-02-17T08:13:24;97075.22;;;10.81;100.00
2397;BME280;1209;48.410;9.054;2023-02-17T08:15:50;97085.03;;;10.79;100.00
2397;BME280;1209;48.410;9.054;2023-02-17T08:18:15;97089.13;;;10.81;100.00
2397;BME280;1209;48.410;9.054;2023-02-17T08:20:40;97096.22;;;10.89;100.00
2397;BME280;1209;48.410;9.054;2023-02-17T08:23:06;97093.94;;;10.94;100.00
2397;BME280;1209;48.410;9.054;2023-02-17T08:25:33;97104.56;;;10.92;100.00
2397;BME280;1209;48.410;9.054;2023-02-17T08:27:59;97109.34;;;11.05;100.00
2397;BME280;1209;48.410;9.054;2023-02-17T08:30:25;97106.75;;;11.13;100.00
2397;BME280;1209;48.410;9.054;2023-02-17T08:32:50;97109.72;;;11.18;100.00
2397;BME280;1209;48.410;9.054;2023-02-17T08:35:15;97110.06;;;11.23;100.00
2397;BME280;1209;48.410;9.054;2023-02-17T08:37:44;97111.69;;;11.24;100.00
2397;BME280;1209;48.410;9.054;2023-02-17T08:40:09;97105.34;;;11.27;100.00
2397;BME280;1209;48.410;9.054;2023-02-17T08:42:35;97104.03;;;11.31;100.00
2397;BME280;1209;48.410;9.054;2023-02-17T08:45:00;97102.91;;;11.33;100.00
2397;BME280;1209;48.410;9.054;2023-02-17T08:47:26;97105.53;;;11.33;100.00
2397;BME280;1209;48.410;9.054;2023-02-17T08:49:51;97109.84;;;11.43;100.00
2397;BME280;1209;48.410;9.054;2023-02-17T08:52:17;97111.16;;;11.47;100.00
2397;BME280;1209;48.410;9.054;2023-02-17T08:54:43;97118.34;;;11.53;100.00
2397;BME280;1209;48.410;9.054;2023-02-17T08:57:08;97115.56;;;11.54;100.00
2397;BME280;1209;48.410;9.054;2023-02-17T08:59:34;97109.69;;;11.52;100.00
2397;BME280;1209;48.410;9.054;2023-02-17T09:01:59;97113.94;;;11.53;100.00
2397;BME280;1209;48.410;9.054;2023-02-17T09:04:24;97111.97;;;11.55;100.00
2397;BME280;1209;48.410;9.054;2023-02-17T09:06:52;97101.88;;;11.68;100.00
2397;BME280;1209;48.410;9.054;2023-02-17T09:09:20;97094.03;;;11.77;100.00
2397;BME280;1209;48.410;9.054;2023-02-17T09:11:47;97122.09;;;11.92;100.00
2397;BME280;1209;48.410;9.054;2023-02-17T09:14:13;97109.00;;;11.92;100.00
2397;BME280;1209;48.410;9.054;2023-02-17T09:16:38;97103.94;;;12.15;100.00
2397;BME280;1209;48.410;9.054;2023-02-17T09:19:04;97112.75;;;12.06;100.00
2397;BME280;1209;48.410;9.054;2023-02-17T09:21:30;97120.78;;;11.96;100.00
2397;BME280;1209;48.410;9.054;2023-02-17T09:23:55;97111.13;;;11.97;100.00
2397;BME280;1209;48.410;9.054;2023-02-17T09:26:21;97126.66;;;11.90;100.00
2397;BME280;1209;48.410;9.054;2023-02-17T09:28:47;97129.94;;;12.01;100.00
2397;BME280;1209;48.410;9.054;2023-02-17T09:31:16;97137.63;;;12.10;100.00
2397;BME280;1209;48.410;9.054;2023-02-17T09:33:42;97135.50;;;12.06;100.00
2397;BME280;1209;48.410;9.054;2023-02-17T09:36:09;97133.06;;;12.12;100.00
2397;BME280;1209;48.410;9.054;2023-02-17T09:38:37;97146.47;;;12.09;100.00
2397;BME280;1209;48.410;9.054;2023-02-17T09:41:33;97128.47;;;11.98;100.00
2397;BME280;1209;48.410;9.054;2023-02-17T09:44:04;97130.91;;;12.00;100.00
2397;BME280;1209;48.410;9.054;2023-02-17T09:46:44;97116.34;;;11.97;100.00
2397;BME280;1209;48.410;9.054;2023-02-17T09:49:15;97122.75;;;12.03;100.00
2397;BME280;1209;48.410;9.054;2023-02-17T09:51:53;97118.31;;;12.11;100.00
2397;BME280;1209;48.410;9.054;2023-02-17T09:54:24;97109.00;;;12.25;100.00
2397;BME280;1209;48.410;9.054;2023-02-17T09:56:53;97101.81;;;12.35;100.00
2397;BME280;1209;48.410;9.054;2023-02-17T09:59:25;97112.78;;;12.31;100.00
2397;BME280;1209;48.410;9.054;2023-02-17T10:01:52;97108.00;;;12.26;100.00
2397;BME280;1209;48.410;9.054;2023-02-17T10:04:21;97102.28;;;12.14;100.00
2397;BME280;1209;48.410;9.054;2023-02-17T10:06:58;97099.50;;;12.16;100.00
2397;BME280;1209;48.410;9.054;2023-02-17T10:09:31;97101.13;;;12.25;100.00
2397;BME280;1209;48.410;9.054;2023-02-17T10:12:01;97103.94;;;12.48;100.00
2397;BME280;1209;48.410;9.054;2023-02-17T10:14:32;97102.28;;;12.47;100.00
2397;BME280;1209;48.410;9.054;2023-02-17T10:17:04;97107.88;;;12.44;100.00
2397;BME280;1209;48.410;9.054;2023-02-17T10:19:38;97119.94;;;12.61;100.00
2397;BME280;1209;48.410;9.054;2023-02-17T10:22:13;97115.53;;;12.61;100.00
2397;BME280;1209;48.410;9.054;2023-02-17T10:24:39;97118.81;;;12.64;100.00
2397;BME280;1209;48.410;9.054;2023-02-17T10:27:23;97113.72;;;12.62;100.00
2397;BME280;1209;48.410;9.054;2023-02-17T10:30:17;97121.09;;;12.67;100.00
2397;BME280;1209;48.410;9.054;2023-02-17T10:33:00;97117.97;;;12.71;100.00
2397;BME280;1209;48.410;9.054;2023-02-17T10:35:49;97118.47;;;12.83;100.00
2397;BME280;1209;48.410;9.054;2023-02-17T10:40:55;97104.59;;;13.21;100.00
2397;BME280;1209;48.410;9.054;2023-02-17T10:43:25;97105.41;;;13.30;100.00
2397;BME280;1209;48.410;9.054;2023-02-17T10:45:54;97108.38;;;13.58;100.00
2397;BME280;1209;48.410;9.054;2023-02-17T10:48:40;97108.97;;;13.68;100.00
2397;BME280;1209;48.410;9.054;2023-02-17T10:51:14;97104.72;;;14.13;100.00
2397;BME280;1209;48.410;9.054;2023-02-17T10:53:40;97098.69;;;13.90;100.00
2397;BME280;1209;48.410;9.054;2023-02-17T10:56:12;97102.34;;;14.03;100.00
2397;BME280;1209;48.410;9.054;2023-02-17T11:01:09;97103.50;;;14.01;100.00
2397;BME280;1209;48.410;9.054;2023-02-17T11:03:36;97111.09;;;14.18;100.00
2397;BME280;1209;48.410;9.054;2023-02-17T11:06:05;97116.53;;;14.40;100.00
2397;BME280;1209;48.410;9.054;2023-02-17T11:08:36;97135.06;;;14.46;100.00
2397;BME280;1209;48.410;9.054;2023-02-17T11:11:34;97129.56;;;14.33;100.00
2397;BME280;1209;48.410;9.054;2023-02-17T11:16:51;97137.75;;;13.53;100.00
2397;BME280;1209;48.410;9.054;2023-02-17T11:19:25;97127.72;;;13.57;100.00
2397;BME280;1209;48.410;9.054;2023-02-17T11:21:56;97123.97;;;13.51;100.00
2397;BME280;1209;48.410;9.054;2023-02-17T11:24:22;97110.28;;;13.64;100.00
2397;BME280;1209;48.410;9.054;2023-02-17T11:26:59;97102.47;;;13.87;100.00
2397;BME280;1209;48.410;9.054;2023-02-17T11:29:26;97100.72;;;14.02;100.00
2397;BME280;1209;48.410;9.054;2023-02-17T11:32:05;97107.25;;;14.29;100.00
2397;BME280;1209;48.410;9.054;2023-02-17T11:34:35;97117.47;;;14.01;100.00
2397;BME280;1209;48.410;9.054;2023-02-17T11:37:17;97116.06;;;13.91;100.00
2397;BME280;1209;48.410;9.054;2023-02-17T11:39:46;97106.44;;;13.83;100.00
2397;BME280;1209;48.410;9.054;2023-02-17T11:42:23;97107.94;;;13.77;100.00
2397;BME280;1209;48.410;9.054;2023-02-17T11:44:49;97103.06;;;13.74;100.00
2397;BME280;1209;48.410;9.054;2023-02-17T11:50:02;97109.13;;;13.98;100.00
2397;BME280;1209;48.410;9.054;2023-02-17T11:52:47;97106.91;;;13.86;100.00
2397;BME280;1209;48.410;9.054;2023-02-17T12:00:52;97106.16;;;13.70;100.00
2397;BME280;1209;48.410;9.054;2023-02-17T12:06:17;97098.91;;;13.80;100.00
2397;BME280;1209;48.410;9.054;2023-02-17T12:11:29;97100.59;;;13.73;100.00
2397;BME280;1209;48.410;9.054;2023-02-17T12:14:22;97101.09;;;13.68;100.00
2397;BME280;1209;48.410;9.054;2023-02-17T12:17:03;97098.50;;;13.60;100.00
2397;BME280;1209;48.410;9.054;2023-02-17T12:19:47;97088.88;;;13.52;100.00
2397;BME280;1209;48.410;9.054;2023-02-17T12:22:34;97091.78;;;13.35;100.00
2397;BME280;1209;48.410;9.054;2023-02-17T12:30:56;97094.69;;;13.40;100.00
2397;BME280;1209;48.410;9.054;2023-02-17T12:36:07;97100.16;;;13.30;100.00
2397;BME280;1209;48.410;9.054;2023-02-17T12:38:38;97096.56;;;13.23;100.00
2397;BME280;1209;48.410;9.054;2023-02-17T12:41:32;97101.66;;;13.25;100.00
2397;BME280;1209;48.410;9.054;2023-02-17T12:44:05;97100.34;;;13.12;100.00
2397;BME280;1209;48.410;9.054;2023-02-17T12:46:38;97097.06;;;13.10;100.00
2397;BME280;1209;48.410;9.054;2023-02-17T12:49:20;97106.09;;;13.08;100.00
2397;BME280;1209;48.410;9.054;2023-02-17T12:52:17;97093.50;;;13.03;100.00
2397;BME280;1209;48.410;9.054;2023-02-17T12:55:04;97086.75;;;13.09;100.00
2397;BME280;1209;48.410;9.054;2023-02-17T12:57:47;97088.88;;;13.05;100.00
2397;BME280;1209;48.410;9.054;2023-02-17T13:00:34;97098.09;;;13.01;100.00
2397;BME280;1209;48.410;9.054;2023-02-17T13:03:02;97090.22;;;13.01;100.00
2397;BME280;1209;48.410;9.054;2023-02-17T13:05:35;97090.22;;;13.01;100.00
2397;BME280;1209;48.410;9.054;2023-02-17T13:08:10;97084.00;;;13.02;100.00
2397;BME280;1209;48.410;9.054;2023-02-17T13:10:40;97087.09;;;13.06;100.00
2397;BME280;1209;48.410;9.054;2023-02-17T13:13:10;97084.44;;;13.14;100.00
2397;BME280;1209;48.410;9.054;2023-02-17T13:15:39;97082.97;;;13.19;100.00
2397;BME280;1209;48.410;9.054;2023-02-17T13:18:26;97081.31;;;13.27;100.00
2397;BME280;1209;48.410;9.054;2023-02-17T13:23:40;97081.00;;;13.13;100.00
2397;BME280;1209;48.410;9.054;2023-02-17T13:28:46;97076.56;;;13.22;100.00
2397;BME280;1209;48.410;9.054;2023-02-17T13:31:20;97075.09;;;13.28;100.00
2397;BME280;1209;48.410;9.054;2023-02-17T13:33:49;97084.53;;;13.37;100.00
2397;BME280;1209;48.410;9.054;2023-02-17T13:36:20;97089.44;;;13.40;100.00
2397;BME280;1209;48.410;9.054;2023-02-17T13:41:32;97088.16;;;13.36;100.00
2397;BME280;1209;48.410;9.054;2023-02-17T13:44:25;97083.69;;;13.44;100.00
2397;BME280;1209;48.410;9.054;2023-02-17T13:46:52;97079.25;;;13.45;100.00
2397;BME280;1209;48.410;9.054;2023-02-17T13:49:24;97091.22;;;13.47;100.00
2397;BME280;1209;48.410;9.054;2023-02-17T13:51:52;97086.09;;;13.54;100.00
2397;BME280;1209;48.410;9.054;2023-02-17T13:54:20;97085.75;;;13.57;100.00
2397;BME280;1209;48.410;9.054;2023-02-17T13:56:51;97086.22;;;13.61;100.00
2397;BME280;1209;48.410;9.054;2023-02-17T13:59:22;97078.03;;;13.55;100.00
2397;BME280;1209;48.410;9.054;2023-02-17T14:01:48;97083.06;;;13.65;100.00
2397;BME280;1209;48.410;9.054;2023-02-17T14:04:20;97088.31;;;13.65;100.00
2397;BME280;1209;48.410;9.054;2023-02-17T14:06:46;97086.31;;;13.75;100.00
2397;BME280;1209;48.410;9.054;2023-02-17T14:09:33;97074.22;;;13.89;100.00
2397;BME280;1209;48.410;9.054;2023-02-17T14:12:04;97072.19;;;13.76;100.00
2397;BME280;1209;48.410;9.054;2023-02-17T14:14:33;97078.72;;;13.80;100.00
2397;BME280;1209;48.410;9.054;2023-02-17T14:17:05;97077.19;;;13.86;100.00
2397;BME280;1209;48.410;9.054;2023-02-17T14:19:41;97071.34;;;13.99;100.00